KSLN/SLN METAR and TAF weather

Enter ICAO airport designator
Station Type Date Time Source
KSLN METAR 2022/01/19 18:53 UTC NOAA

KSLN 191853Z 02015G27KT 10SM BKN110 M06/M17 A3043 RMK AO2 PK WND 36029/1809 SLP318 T10611172


Station Type Date Time Source
KSLN Decoded METAR 2022/01/19 18:53 UTC NOAA

SALINA MUNICIPAL AIRPORT, KS, United States (KSLN) 38-47N 97-39W 385M
Jan 19, 2022 - 01:53 PM EST / 2022.01.19 1853 UTC
Wind: from the NNE (020 degrees) at 17 MPH (15 KT) gusting to 31 MPH (27 KT):0
Visibility: 10 mile(s):0
Sky conditions: mostly cloudy
Temperature: 21.0 F (-6.1 C)
Windchill: 6 F (-14 C):1
Dew Point: 1.0 F (-17.2 C)
Relative Humidity: 41%
Pressure (altimeter): 30.43 in. Hg (1030 hPa)
ob: KSLN 191853Z 02015G27KT 10SM BKN110 M06/M17 A3043 RMK AO2 PK WND 36029/1809 SLP318 T10611172
cycle: 19

Station Type Date Time Source
KSLN TAF 2022/01/19 18:30 UTC NOAA

TAF KSLN 191727Z 1918/2018 01022G30KT P6SM BKN120
FM200000 01015G23KT P6SM BKN120
FM201500 02005KT P6SM FEW250

Example: see airport list